sensor_id;sensor_type;location;lat;lon;timestamp;P1;durP1;ratioP1;P2;durP2;ratioP2
10463;SDS011;5279;42.048;24.638;2023-05-14T00:02:19;2.20;;;2.10;;
10463;SDS011;5279;42.048;24.638;2023-05-14T00:04:49;4.87;;;2.90;;
10463;SDS011;5279;42.048;24.638;2023-05-14T00:07:15;3.53;;;2.50;;
10463;SDS011;5279;42.048;24.638;2023-05-14T00:09:42;4.67;;;2.70;;
10463;SDS011;5279;42.048;24.638;2023-05-14T00:12:09;4.73;;;2.90;;
10463;SDS011;5279;42.048;24.638;2023-05-14T00:14:36;2.90;;;2.70;;
10463;SDS011;5279;42.048;24.638;2023-05-14T00:17:03;4.10;;;2.93;;
10463;SDS011;5279;42.048;24.638;2023-05-14T00:19:31;2.90;;;2.70;;
10463;SDS011;5279;42.048;24.638;2023-05-14T00:21:59;3.10;;;2.80;;
10463;SDS011;5279;42.048;24.638;2023-05-14T00:24:26;2.87;;;2.50;;
10463;SDS011;5279;42.048;24.638;2023-05-14T00:26:52;2.80;;;2.60;;
10463;SDS011;5279;42.048;24.638;2023-05-14T00:29:19;3.07;;;2.60;;
10463;SDS011;5279;42.048;24.638;2023-05-14T00:31:46;4.63;;;2.83;;
10463;SDS011;5279;42.048;24.638;2023-05-14T00:34:13;4.13;;;3.10;;
10463;SDS011;5279;42.048;24.638;2023-05-14T00:36:41;2.60;;;2.40;;
10463;SDS011;5279;42.048;24.638;2023-05-14T00:39:09;4.00;;;3.17;;
10463;SDS011;5279;42.048;24.638;2023-05-14T00:41:36;3.03;;;2.67;;
10463;SDS011;5279;42.048;24.638;2023-05-14T00:44:03;4.97;;;2.60;;
10463;SDS011;5279;42.048;24.638;2023-05-14T00:46:30;2.83;;;2.57;;
10463;SDS011;5279;42.048;24.638;2023-05-14T00:48:57;3.00;;;2.60;;
10463;SDS011;5279;42.048;24.638;2023-05-14T00:51:25;3.17;;;2.87;;
10463;SDS011;5279;42.048;24.638;2023-05-14T00:53:52;2.60;;;2.40;;
10463;SDS011;5279;42.048;24.638;2023-05-14T00:56:21;3.03;;;2.83;;
10463;SDS011;5279;42.048;24.638;2023-05-14T00:58:49;3.00;;;2.73;;
10463;SDS011;5279;42.048;24.638;2023-05-14T01:01:15;3.00;;;2.70;;
10463;SDS011;5279;42.048;24.638;2023-05-14T01:03:42;2.80;;;2.60;;
10463;SDS011;5279;42.048;24.638;2023-05-14T01:06:11;3.43;;;2.93;;
10463;SDS011;5279;42.048;24.638;2023-05-14T01:08:45;3.37;;;2.80;;
10463;SDS011;5279;42.048;24.638;2023-05-14T01:11:21;2.90;;;2.70;;
10463;SDS011;5279;42.048;24.638;2023-05-14T01:13:56;3.23;;;2.90;;
10463;SDS011;5279;42.048;24.638;2023-05-14T01:16:29;3.00;;;2.67;;
10463;SDS011;5279;42.048;24.638;2023-05-14T01:18:59;3.33;;;3.03;;
10463;SDS011;5279;42.048;24.638;2023-05-14T01:21:37;3.57;;;3.10;;
10463;SDS011;5279;42.048;24.638;2023-05-14T01:27:25;3.80;;;2.90;;
10463;SDS011;5279;42.048;24.638;2023-05-14T01:29:58;2.93;;;2.63;;
10463;SDS011;5279;42.048;24.638;2023-05-14T01:32:33;4.20;;;2.80;;
10463;SDS011;5279;42.048;24.638;2023-05-14T01:35:00;4.53;;;3.10;;
10463;SDS011;5279;42.048;24.638;2023-05-14T01:37:29;3.40;;;3.07;;
10463;SDS011;5279;42.048;24.638;2023-05-14T01:39:57;5.17;;;3.00;;
10463;SDS011;5279;42.048;24.638;2023-05-14T01:42:25;3.90;;;3.07;;
10463;SDS011;5279;42.048;24.638;2023-05-14T01:44:53;3.70;;;3.20;;
10463;SDS011;5279;42.048;24.638;2023-05-14T01:47:21;3.60;;;3.07;;
10463;SDS011;5279;42.048;24.638;2023-05-14T01:49:48;3.43;;;3.13;;
10463;SDS011;5279;42.048;24.638;2023-05-14T01:52:15;4.63;;;3.13;;
10463;SDS011;5279;42.048;24.638;2023-05-14T01:54:46;3.60;;;3.10;;
10463;SDS011;5279;42.048;24.638;2023-05-14T01:57:13;2.80;;;2.60;;
10463;SDS011;5279;42.048;24.638;2023-05-14T01:59:40;4.33;;;3.43;;
10463;SDS011;5279;42.048;24.638;2023-05-14T02:02:07;4.63;;;3.40;;
10463;SDS011;5279;42.048;24.638;2023-05-14T02:04:33;3.40;;;3.10;;
10463;SDS011;5279;42.048;24.638;2023-05-14T02:07:00;3.80;;;2.70;;
10463;SDS011;5279;42.048;24.638;2023-05-14T02:09:27;4.13;;;3.03;;
10463;SDS011;5279;42.048;24.638;2023-05-14T02:11:56;4.43;;;3.13;;
10463;SDS011;5279;42.048;24.638;2023-05-14T02:14:23;5.57;;;3.27;;
10463;SDS011;5279;42.048;24.638;2023-05-14T02:16:49;3.60;;;3.23;;
10463;SDS011;5279;42.048;24.638;2023-05-14T02:19:16;3.17;;;2.83;;
10463;SDS011;5279;42.048;24.638;2023-05-14T02:21:43;4.60;;;2.67;;
10463;SDS011;5279;42.048;24.638;2023-05-14T02:24:10;3.57;;;3.27;;
10463;SDS011;5279;42.048;24.638;2023-05-14T02:26:37;2.90;;;2.70;;
10463;SDS011;5279;42.048;24.638;2023-05-14T02:29:05;3.83;;;3.47;;
10463;SDS011;5279;42.048;24.638;2023-05-14T02:31:32;3.87;;;3.23;;
10463;SDS011;5279;42.048;24.638;2023-05-14T02:33:59;3.50;;;3.20;;
10463;SDS011;5279;42.048;24.638;2023-05-14T02:36:27;3.90;;;3.20;;
10463;SDS011;5279;42.048;24.638;2023-05-14T02:38:54;3.73;;;3.20;;
10463;SDS011;5279;42.048;24.638;2023-05-14T02:41:21;3.40;;;3.10;;
10463;SDS011;5279;42.048;24.638;2023-05-14T02:43:47;3.40;;;3.10;;
10463;SDS011;5279;42.048;24.638;2023-05-14T02:46:16;4.10;;;2.93;;
10463;SDS011;5279;42.048;24.638;2023-05-14T02:48:43;3.77;;;3.40;;
10463;SDS011;5279;42.048;24.638;2023-05-14T02:51:11;3.43;;;3.00;;
10463;SDS011;5279;42.048;24.638;2023-05-14T02:53:37;3.40;;;3.00;;
10463;SDS011;5279;42.048;24.638;2023-05-14T02:56:04;3.77;;;3.30;;
10463;SDS011;5279;42.048;24.638;2023-05-14T02:58:32;3.20;;;2.90;;
10463;SDS011;5279;42.048;24.638;2023-05-14T03:01:15;4.77;;;3.33;;
10463;SDS011;5279;42.048;24.638;2023-05-14T03:03:42;3.50;;;3.20;;
10463;SDS011;5279;42.048;24.638;2023-05-14T03:06:10;3.83;;;3.53;;
10463;SDS011;5279;42.048;24.638;2023-05-14T03:08:37;3.27;;;2.97;;
10463;SDS011;5279;42.048;24.638;2023-05-14T03:11:03;3.70;;;3.20;;
10463;SDS011;5279;42.048;24.638;2023-05-14T03:13:31;4.37;;;3.50;;
10463;SDS011;5279;42.048;24.638;2023-05-14T03:15:57;3.90;;;3.30;;
10463;SDS011;5279;42.048;24.638;2023-05-14T03:18:26;4.73;;;3.70;;
10463;SDS011;5279;42.048;24.638;2023-05-14T03:20:54;5.00;;;3.97;;
10463;SDS011;5279;42.048;24.638;2023-05-14T03:23:21;4.00;;;3.10;;
10463;SDS011;5279;42.048;24.638;2023-05-14T03:25:48;4.80;;;4.03;;
10463;SDS011;5279;42.048;24.638;2023-05-14T03:28:15;3.70;;;3.37;;
10463;SDS011;5279;42.048;24.638;2023-05-14T03:30:42;5.37;;;3.87;;
10463;SDS011;5279;42.048;24.638;2023-05-14T03:33:08;4.23;;;3.83;;
10463;SDS011;5279;42.048;24.638;2023-05-14T03:35:37;4.03;;;3.53;;
10463;SDS011;5279;42.048;24.638;2023-05-14T03:38:04;4.63;;;3.97;;
10463;SDS011;5279;42.048;24.638;2023-05-14T03:40:31;3.37;;;3.07;;
10463;SDS011;5279;42.048;24.638;2023-05-14T03:42:58;4.43;;;3.40;;
10463;SDS011;5279;42.048;24.638;2023-05-14T03:45:25;3.80;;;3.40;;
10463;SDS011;5279;42.048;24.638;2023-05-14T03:47:52;3.57;;;3.27;;
10463;SDS011;5279;42.048;24.638;2023-05-14T03:50:19;4.43;;;3.30;;
10463;SDS011;5279;42.048;24.638;2023-05-14T03:52:50;4.20;;;3.80;;
10463;SDS011;5279;42.048;24.638;2023-05-14T03:55:17;5.27;;;3.27;;
10463;SDS011;5279;42.048;24.638;2023-05-14T03:57:44;4.37;;;3.73;;
10463;SDS011;5279;42.048;24.638;2023-05-14T04:00:12;4.33;;;3.57;;
10463;SDS011;5279;42.048;24.638;2023-05-14T04:02:39;3.50;;;3.20;;
10463;SDS011;5279;42.048;24.638;2023-05-14T04:05:06;3.87;;;3.10;;
10463;SDS011;5279;42.048;24.638;2023-05-14T04:07:34;4.47;;;3.37;;
10463;SDS011;5279;42.048;24.638;2023-05-14T04:10:02;4.17;;;3.77;;
10463;SDS011;5279;42.048;24.638;2023-05-14T04:12:29;3.70;;;3.40;;
10463;SDS011;5279;42.048;24.638;2023-05-14T04:14:56;4.43;;;4.03;;
10463;SDS011;5279;42.048;24.638;2023-05-14T04:17:23;4.00;;;3.60;;
10463;SDS011;5279;42.048;24.638;2023-05-14T04:19:50;6.40;;;4.40;;
10463;SDS011;5279;42.048;24.638;2023-05-14T04:22:17;3.83;;;3.50;;
10463;SDS011;5279;42.048;24.638;2023-05-14T04:24:44;3.90;;;3.50;;
10463;SDS011;5279;42.048;24.638;2023-05-14T04:27:13;3.93;;;3.40;;
10463;SDS011;5279;42.048;24.638;2023-05-14T04:29:46;5.37;;;3.77;;
10463;SDS011;5279;42.048;24.638;2023-05-14T04:32:13;4.23;;;3.83;;
10463;SDS011;5279;42.048;24.638;2023-05-14T04:34:40;5.33;;;3.50;;
10463;SDS011;5279;42.048;24.638;2023-05-14T04:37:07;5.07;;;3.73;;
10463;SDS011;5279;42.048;24.638;2023-05-14T04:39:34;5.00;;;3.93;;
10463;SDS011;5279;42.048;24.638;2023-05-14T04:42:02;4.50;;;3.50;;
10463;SDS011;5279;42.048;24.638;2023-05-14T04:44:30;6.40;;;3.53;;
10463;SDS011;5279;42.048;24.638;2023-05-14T04:46:58;5.87;;;3.63;;
10463;SDS011;5279;42.048;24.638;2023-05-14T04:49:26;6.60;;;4.10;;
10463;SDS011;5279;42.048;24.638;2023-05-14T04:51:53;4.93;;;4.43;;
10463;SDS011;5279;42.048;24.638;2023-05-14T04:54:20;4.23;;;3.83;;
10463;SDS011;5279;42.048;24.638;2023-05-14T04:56:47;6.53;;;4.10;;
10463;SDS011;5279;42.048;24.638;2023-05-14T04:59:14;4.10;;;3.70;;
10463;SDS011;5279;42.048;24.638;2023-05-14T05:01:42;4.33;;;3.93;;
10463;SDS011;5279;42.048;24.638;2023-05-14T05:04:09;4.23;;;3.83;;
10463;SDS011;5279;42.048;24.638;2023-05-14T05:06:36;4.20;;;3.80;;
10463;SDS011;5279;42.048;24.638;2023-05-14T05:09:03;4.50;;;3.87;;
10463;SDS011;5279;42.048;24.638;2023-05-14T05:11:29;4.80;;;4.30;;
10463;SDS011;5279;42.048;24.638;2023-05-14T05:13:56;4.20;;;3.80;;
10463;SDS011;5279;42.048;24.638;2023-05-14T05:16:23;6.17;;;4.03;;
10463;SDS011;5279;42.048;24.638;2023-05-14T05:18:51;3.60;;;3.30;;
10463;SDS011;5279;42.048;24.638;2023-05-14T05:21:18;4.80;;;3.93;;
10463;SDS011;5279;42.048;24.638;2023-05-14T05:23:45;3.57;;;3.27;;
10463;SDS011;5279;42.048;24.638;2023-05-14T05:26:12;5.47;;;3.90;;
10463;SDS011;5279;42.048;24.638;2023-05-14T05:28:39;5.80;;;4.00;;
10463;SDS011;5279;42.048;24.638;2023-05-14T05:31:06;5.13;;;3.63;;
10463;SDS011;5279;42.048;24.638;2023-05-14T05:33:33;4.67;;;4.23;;
10463;SDS011;5279;42.048;24.638;2023-05-14T05:36:01;6.27;;;3.87;;
10463;SDS011;5279;42.048;24.638;2023-05-14T05:38:28;6.20;;;4.17;;
10463;SDS011;5279;42.048;24.638;2023-05-14T05:40:55;4.27;;;3.87;;
10463;SDS011;5279;42.048;24.638;2023-05-14T05:43:22;4.33;;;3.93;;
10463;SDS011;5279;42.048;24.638;2023-05-14T05:45:49;5.50;;;4.30;;
10463;SDS011;5279;42.048;24.638;2023-05-14T05:48:15;4.80;;;4.17;;
10463;SDS011;5279;42.048;24.638;2023-05-14T05:50:42;4.30;;;3.90;;
10463;SDS011;5279;42.048;24.638;2023-05-14T05:53:13;7.17;;;4.37;;
10463;SDS011;5279;42.048;24.638;2023-05-14T05:55:41;6.33;;;4.30;;
10463;SDS011;5279;42.048;24.638;2023-05-14T05:58:08;4.97;;;4.17;;
10463;SDS011;5279;42.048;24.638;2023-05-14T06:00:34;4.30;;;3.90;;
10463;SDS011;5279;42.048;24.638;2023-05-14T06:03:01;4.57;;;3.97;;
10463;SDS011;5279;42.048;24.638;2023-05-14T06:05:28;4.60;;;4.07;;
10463;SDS011;5279;42.048;24.638;2023-05-14T06:07:55;5.17;;;3.90;;
10463;SDS011;5279;42.048;24.638;2023-05-14T06:10:25;4.37;;;3.97;;
10463;SDS011;5279;42.048;24.638;2023-05-14T06:12:52;4.60;;;4.20;;
10463;SDS011;5279;42.048;24.638;2023-05-14T06:15:18;5.87;;;4.40;;
10463;SDS011;5279;42.048;24.638;2023-05-14T06:17:46;7.13;;;4.67;;
10463;SDS011;5279;42.048;24.638;2023-05-14T06:20:13;5.53;;;4.20;;
10463;SDS011;5279;42.048;24.638;2023-05-14T06:22:39;5.37;;;4.57;;
10463;SDS011;5279;42.048;24.638;2023-05-14T06:25:07;5.40;;;4.10;;
10463;SDS011;5279;42.048;24.638;2023-05-14T06:27:35;4.17;;;3.80;;
10463;SDS011;5279;42.048;24.638;2023-05-14T06:30:03;5.40;;;4.80;;
10463;SDS011;5279;42.048;24.638;2023-05-14T06:32:31;6.13;;;4.70;;
10463;SDS011;5279;42.048;24.638;2023-05-14T06:34:57;4.53;;;4.10;;
10463;SDS011;5279;42.048;24.638;2023-05-14T06:37:24;6.13;;;5.07;;
10463;SDS011;5279;42.048;24.638;2023-05-14T06:39:51;6.27;;;4.37;;
10463;SDS011;5279;42.048;24.638;2023-05-14T06:42:18;6.87;;;4.67;;
10463;SDS011;5279;42.048;24.638;2023-05-14T06:44:47;4.87;;;4.43;;
10463;SDS011;5279;42.048;24.638;2023-05-14T06:47:14;6.80;;;4.47;;
10463;SDS011;5279;42.048;24.638;2023-05-14T06:49:40;5.73;;;5.10;;
10463;SDS011;5279;42.048;24.638;2023-05-14T06:52:07;4.93;;;4.43;;
10463;SDS011;5279;42.048;24.638;2023-05-14T06:54:34;5.17;;;4.13;;
10463;SDS011;5279;42.048;24.638;2023-05-14T06:57:01;5.30;;;4.80;;
10463;SDS011;5279;42.048;24.638;2023-05-14T06:59:29;6.87;;;6.17;;
10463;SDS011;5279;42.048;24.638;2023-05-14T07:01:57;8.70;;;5.57;;
10463;SDS011;5279;42.048;24.638;2023-05-14T07:04:24;7.63;;;5.33;;
10463;SDS011;5279;42.048;24.638;2023-05-14T07:06:50;8.03;;;5.37;;
10463;SDS011;5279;42.048;24.638;2023-05-14T07:09:17;7.07;;;6.00;;
10463;SDS011;5279;42.048;24.638;2023-05-14T07:11:44;8.77;;;6.27;;
10463;SDS011;5279;42.048;24.638;2023-05-14T07:14:11;7.20;;;5.67;;
10463;SDS011;5279;42.048;24.638;2023-05-14T07:16:38;6.60;;;5.90;;
10463;SDS011;5279;42.048;24.638;2023-05-14T07:19:07;7.43;;;6.27;;
10463;SDS011;5279;42.048;24.638;2023-05-14T07:21:34;6.67;;;5.67;;
10463;SDS011;5279;42.048;24.638;2023-05-14T07:24:01;6.33;;;5.73;;
10463;SDS011;5279;42.048;24.638;2023-05-14T07:26:28;7.90;;;6.53;;
10463;SDS011;5279;42.048;24.638;2023-05-14T07:28:55;7.00;;;6.30;;
10463;SDS011;5279;42.048;24.638;2023-05-14T07:31:22;7.83;;;6.53;;
10463;SDS011;5279;42.048;24.638;2023-05-14T07:33:49;8.67;;;6.27;;
10463;SDS011;5279;42.048;24.638;2023-05-14T07:36:17;8.37;;;6.37;;
10463;SDS011;5279;42.048;24.638;2023-05-14T07:38:44;7.37;;;6.43;;
10463;SDS011;5279;42.048;24.638;2023-05-14T07:41:11;7.30;;;6.60;;
10463;SDS011;5279;42.048;24.638;2023-05-14T07:43:38;7.90;;;6.97;;
10463;SDS011;5279;42.048;24.638;2023-05-14T07:46:05;6.50;;;5.80;;
10463;SDS011;5279;42.048;24.638;2023-05-14T07:48:32;7.73;;;6.27;;
10463;SDS011;5279;42.048;24.638;2023-05-14T07:50:59;7.17;;;6.20;;
10463;SDS011;5279;42.048;24.638;2023-05-14T07:53:27;7.07;;;5.53;;
10463;SDS011;5279;42.048;24.638;2023-05-14T07:55:54;7.33;;;6.23;;
10463;SDS011;5279;42.048;24.638;2023-05-14T07:58:21;7.00;;;6.17;;
10463;SDS011;5279;42.048;24.638;2023-05-14T08:00:49;8.87;;;6.00;;
10463;SDS011;5279;42.048;24.638;2023-05-14T08:03:16;7.20;;;6.23;;
10463;SDS011;5279;42.048;24.638;2023-05-14T08:05:42;6.90;;;6.20;;
10463;SDS011;5279;42.048;24.638;2023-05-14T08:08:10;9.17;;;6.00;;
10463;SDS011;5279;42.048;24.638;2023-05-14T08:10:38;6.90;;;6.20;;
10463;SDS011;5279;42.048;24.638;2023-05-14T08:13:05;11.30;;;6.40;;
10463;SDS011;5279;42.048;24.638;2023-05-14T08:15:32;7.80;;;6.53;;
10463;SDS011;5279;42.048;24.638;2023-05-14T08:17:59;7.70;;;6.30;;
10463;SDS011;5279;42.048;24.638;2023-05-14T08:20:27;8.67;;;6.93;;
10463;SDS011;5279;42.048;24.638;2023-05-14T08:22:55;7.63;;;6.70;;
10463;SDS011;5279;42.048;24.638;2023-05-14T08:25:22;7.67;;;6.83;;
10463;SDS011;5279;42.048;24.638;2023-05-14T08:27:50;7.07;;;6.37;;
10463;SDS011;5279;42.048;24.638;2023-05-14T08:30:18;8.07;;;7.27;;
10463;SDS011;5279;42.048;24.638;2023-05-14T08:32:45;7.77;;;6.97;;
10463;SDS011;5279;42.048;24.638;2023-05-14T08:35:12;7.73;;;6.77;;
10463;SDS011;5279;42.048;24.638;2023-05-14T08:37:39;8.57;;;7.67;;
10463;SDS011;5279;42.048;24.638;2023-05-14T08:40:06;10.27;;;8.27;;
10463;SDS011;5279;42.048;24.638;2023-05-14T08:42:34;9.77;;;8.20;;
10463;SDS011;5279;42.048;24.638;2023-05-14T08:45:07;10.37;;;7.27;;
10463;SDS011;5279;42.048;24.638;2023-05-14T08:47:39;8.93;;;7.73;;
10463;SDS011;5279;42.048;24.638;2023-05-14T08:50:06;8.43;;;7.07;;
10463;SDS011;5279;42.048;24.638;2023-05-14T08:52:33;7.73;;;6.53;;
10463;SDS011;5279;42.048;24.638;2023-05-14T08:55:01;9.20;;;6.70;;
10463;SDS011;5279;42.048;24.638;2023-05-14T08:57:29;8.00;;;6.73;;
10463;SDS011;5279;42.048;24.638;2023-05-14T08:59:58;7.37;;;6.67;;
10463;SDS011;5279;42.048;24.638;2023-05-14T09:02:28;7.67;;;6.63;;
10463;SDS011;5279;42.048;24.638;2023-05-14T09:04:55;7.10;;;6.43;;
10463;SDS011;5279;42.048;24.638;2023-05-14T09:07:23;7.50;;;6.13;;
10463;SDS011;5279;42.048;24.638;2023-05-14T09:09:50;7.17;;;6.30;;
10463;SDS011;5279;42.048;24.638;2023-05-14T09:12:17;7.00;;;6.30;;
10463;SDS011;5279;42.048;24.638;2023-05-14T09:14:45;8.17;;;6.70;;
10463;SDS011;5279;42.048;24.638;2023-05-14T09:17:13;6.93;;;6.20;;
10463;SDS011;5279;42.048;24.638;2023-05-14T09:19:42;6.27;;;5.50;;
10463;SDS011;5279;42.048;24.638;2023-05-14T09:22:11;6.20;;;5.60;;
10463;SDS011;5279;42.048;24.638;2023-05-14T09:24:39;6.47;;;5.60;;
10463;SDS011;5279;42.048;24.638;2023-05-14T09:27:06;6.30;;;5.70;;
10463;SDS011;5279;42.048;24.638;2023-05-14T09:29:34;6.67;;;5.97;;
10463;SDS011;5279;42.048;24.638;2023-05-14T09:32:02;8.50;;;6.33;;
10463;SDS011;5279;42.048;24.638;2023-05-14T09:34:33;6.40;;;5.70;;
10463;SDS011;5279;42.048;24.638;2023-05-14T09:37:04;6.90;;;6.20;;
10463;SDS011;5279;42.048;24.638;2023-05-14T09:39:32;8.40;;;6.30;;
10463;SDS011;5279;42.048;24.638;2023-05-14T09:42:01;7.63;;;6.83;;
10463;SDS011;5279;42.048;24.638;2023-05-14T09:44:28;7.07;;;6.43;;
10463;SDS011;5279;42.048;24.638;2023-05-14T09:46:55;7.23;;;6.53;;
10463;SDS011;5279;42.048;24.638;2023-05-14T09:49:22;10.60;;;6.93;;
10463;SDS011;5279;42.048;24.638;2023-05-14T09:51:49;7.77;;;6.97;;
10463;SDS011;5279;42.048;24.638;2023-05-14T09:54:18;7.73;;;6.97;;
10463;SDS011;5279;42.048;24.638;2023-05-14T09:56:45;8.77;;;7.87;;
10463;SDS011;5279;42.048;24.638;2023-05-14T09:59:12;11.47;;;8.73;;
10463;SDS011;5279;42.048;24.638;2023-05-14T10:01:39;9.10;;;7.77;;
10463;SDS011;5279;42.048;24.638;2023-05-14T10:04:08;9.10;;;7.63;;
10463;SDS011;5279;42.048;24.638;2023-05-14T10:06:37;7.60;;;6.87;;
10463;SDS011;5279;42.048;24.638;2023-05-14T10:11:56;8.83;;;7.93;;
10463;SDS011;5279;42.048;24.638;2023-05-14T10:14:28;10.07;;;8.03;;
10463;SDS011;5279;42.048;24.638;2023-05-14T10:17:00;8.47;;;7.67;;
10463;SDS011;5279;42.048;24.638;2023-05-14T10:19:28;8.80;;;7.57;;
10463;SDS011;5279;42.048;24.638;2023-05-14T10:22:02;8.33;;;7.30;;
10463;SDS011;5279;42.048;24.638;2023-05-14T10:24:31;9.13;;;7.73;;
10463;SDS011;5279;42.048;24.638;2023-05-14T10:26:59;9.57;;;7.70;;
10463;SDS011;5279;42.048;24.638;2023-05-14T10:29:32;8.03;;;7.23;;
10463;SDS011;5279;42.048;24.638;2023-05-14T10:32:02;9.17;;;7.20;;
10463;SDS011;5279;42.048;24.638;2023-05-14T10:34:34;7.90;;;6.90;;
10463;SDS011;5279;42.048;24.638;2023-05-14T10:37:07;8.10;;;6.97;;
10463;SDS011;5279;42.048;24.638;2023-05-14T10:39:40;8.43;;;7.23;;
10463;SDS011;5279;42.048;24.638;2023-05-14T10:42:09;6.87;;;6.17;;
10463;SDS011;5279;42.048;24.638;2023-05-14T10:44:38;9.53;;;7.27;;
10463;SDS011;5279;42.048;24.638;2023-05-14T10:47:11;9.10;;;6.90;;
10463;SDS011;5279;42.048;24.638;2023-05-14T10:49:38;9.80;;;8.13;;
10463;SDS011;5279;42.048;24.638;2023-05-14T10:52:07;8.67;;;7.77;;
10463;SDS011;5279;42.048;24.638;2023-05-14T10:54:34;8.90;;;8.00;;
10463;SDS011;5279;42.048;24.638;2023-05-14T10:57:03;12.43;;;9.50;;
10463;SDS011;5279;42.048;24.638;2023-05-14T10:59:39;10.77;;;8.17;;
10463;SDS011;5279;42.048;24.638;2023-05-14T11:02:16;8.73;;;7.70;;
10463;SDS011;5279;42.048;24.638;2023-05-14T11:04:50;9.13;;;8.23;;
10463;SDS011;5279;42.048;24.638;2023-05-14T11:07:19;9.70;;;8.33;;
10463;SDS011;5279;42.048;24.638;2023-05-14T11:09:49;11.13;;;8.07;;
10463;SDS011;5279;42.048;24.638;2023-05-14T11:12:18;9.77;;;8.40;;
10463;SDS011;5279;42.048;24.638;2023-05-14T11:14:46;11.33;;;8.73;;
10463;SDS011;5279;42.048;24.638;2023-05-14T11:17:13;10.10;;;8.43;;
10463;SDS011;5279;42.048;24.638;2023-05-14T11:19:41;9.70;;;8.67;;
10463;SDS011;5279;42.048;24.638;2023-05-14T11:22:09;9.47;;;8.23;;
10463;SDS011;5279;42.048;24.638;2023-05-14T11:24:37;11.47;;;8.23;;
10463;SDS011;5279;42.048;24.638;2023-05-14T11:27:06;10.00;;;8.77;;
10463;SDS011;5279;42.048;24.638;2023-05-14T11:29:35;10.73;;;8.73;;
10463;SDS011;5279;42.048;24.638;2023-05-14T11:35:07;15.07;;;12.03;;
10463;SDS011;5279;42.048;24.638;2023-05-14T11:37:34;11.37;;;9.63;;
10463;SDS011;5279;42.048;24.638;2023-05-14T11:40:01;12.10;;;9.57;;
10463;SDS011;5279;42.048;24.638;2023-05-14T11:42:29;11.27;;;9.73;;
10463;SDS011;5279;42.048;24.638;2023-05-14T11:47:53;9.57;;;8.57;;
10463;SDS011;5279;42.048;24.638;2023-05-14T11:50:20;10.47;;;8.60;;
10463;SDS011;5279;42.048;24.638;2023-05-14T11:52:47;10.67;;;9.10;;
10463;SDS011;5279;42.048;24.638;2023-05-14T11:55:15;11.70;;;8.47;;
10463;SDS011;5279;42.048;24.638;2023-05-14T11:57:42;10.13;;;8.90;;
10463;SDS011;5279;42.048;24.638;2023-05-14T12:00:09;10.57;;;8.87;;
10463;SDS011;5279;42.048;24.638;2023-05-14T12:02:38;10.43;;;8.60;;
10463;SDS011;5279;42.048;24.638;2023-05-14T12:05:06;11.67;;;9.17;;
10463;SDS011;5279;42.048;24.638;2023-05-14T12:07:35;11.63;;;9.23;;
10463;SDS011;5279;42.048;24.638;2023-05-14T12:10:03;10.83;;;9.37;;
10463;SDS011;5279;42.048;24.638;2023-05-14T12:12:33;11.57;;;9.53;;
10463;SDS011;5279;42.048;24.638;2023-05-14T12:15:08;11.27;;;9.33;;
10463;SDS011;5279;42.048;24.638;2023-05-14T12:17:36;12.03;;;9.00;;
10463;SDS011;5279;42.048;24.638;2023-05-14T12:20:06;11.13;;;9.00;;
10463;SDS011;5279;42.048;24.638;2023-05-14T12:22:39;11.43;;;9.07;;
10463;SDS011;5279;42.048;24.638;2023-05-14T12:25:09;12.43;;;8.87;;
10463;SDS011;5279;42.048;24.638;2023-05-14T12:27:38;10.93;;;8.83;;
10463;SDS011;5279;42.048;24.638;2023-05-14T12:30:05;10.63;;;9.37;;
10463;SDS011;5279;42.048;24.638;2023-05-14T12:32:33;12.07;;;10.37;;
10463;SDS011;5279;42.048;24.638;2023-05-14T12:35:01;10.50;;;9.33;;
10463;SDS011;5279;42.048;24.638;2023-05-14T12:37:29;13.73;;;9.37;;
10463;SDS011;5279;42.048;24.638;2023-05-14T12:39:56;10.83;;;9.23;;
10463;SDS011;5279;42.048;24.638;2023-05-14T12:42:23;11.97;;;10.10;;
10463;SDS011;5279;42.048;24.638;2023-05-14T12:44:51;13.53;;;9.97;;
10463;SDS011;5279;42.048;24.638;2023-05-14T12:47:17;11.33;;;9.40;;
10463;SDS011;5279;42.048;24.638;2023-05-14T12:49:44;13.17;;;10.97;;
10463;SDS011;5279;42.048;24.638;2023-05-14T12:52:11;13.73;;;9.73;;
10463;SDS011;5279;42.048;24.638;2023-05-14T12:54:39;13.43;;;10.57;;
10463;SDS011;5279;42.048;24.638;2023-05-14T12:57:07;14.73;;;10.13;;
10463;SDS011;5279;42.048;24.638;2023-05-14T12:59:34;11.57;;;9.80;;
10463;SDS011;5279;42.048;24.638;2023-05-14T13:04:52;15.63;;;10.90;;
10463;SDS011;5279;42.048;24.638;2023-05-14T13:07:19;15.73;;;11.47;;
10463;SDS011;5279;42.048;24.638;2023-05-14T13:09:48;14.40;;;11.13;;
10463;SDS011;5279;42.048;24.638;2023-05-14T13:12:15;14.30;;;11.00;;
10463;SDS011;5279;42.048;24.638;2023-05-14T13:14:42;13.03;;;9.97;;
10463;SDS011;5279;42.048;24.638;2023-05-14T13:17:09;15.23;;;11.60;;
10463;SDS011;5279;42.048;24.638;2023-05-14T13:19:35;17.30;;;12.13;;
10463;SDS011;5279;42.048;24.638;2023-05-14T13:22:02;16.70;;;11.90;;
10463;SDS011;5279;42.048;24.638;2023-05-14T13:24:29;15.43;;;10.97;;
10463;SDS011;5279;42.048;24.638;2023-05-14T13:26:58;16.40;;;11.40;;
10463;SDS011;5279;42.048;24.638;2023-05-14T13:29:25;15.67;;;11.67;;
10463;SDS011;5279;42.048;24.638;2023-05-14T13:31:53;15.80;;;11.43;;
10463;SDS011;5279;42.048;24.638;2023-05-14T13:34:20;17.60;;;11.93;;
10463;SDS011;5279;42.048;24.638;2023-05-14T13:36:47;16.40;;;12.07;;
10463;SDS011;5279;42.048;24.638;2023-05-14T13:39:14;16.03;;;11.97;;
10463;SDS011;5279;42.048;24.638;2023-05-14T13:41:42;16.53;;;11.67;;
10463;SDS011;5279;42.048;24.638;2023-05-14T13:44:11;17.40;;;12.47;;
10463;SDS011;5279;42.048;24.638;2023-05-14T13:46:38;15.87;;;12.53;;
10463;SDS011;5279;42.048;24.638;2023-05-14T13:49:04;17.67;;;12.57;;
10463;SDS011;5279;42.048;24.638;2023-05-14T13:51:31;17.53;;;12.53;;
10463;SDS011;5279;42.048;24.638;2023-05-14T13:53:58;16.97;;;12.00;;
10463;SDS011;5279;42.048;24.638;2023-05-14T13:56:25;17.13;;;12.67;;
10463;SDS011;5279;42.048;24.638;2023-05-14T13:58:54;17.83;;;12.80;;
10463;SDS011;5279;42.048;24.638;2023-05-14T14:01:22;18.47;;;12.77;;
10463;SDS011;5279;42.048;24.638;2023-05-14T14:03:49;17.47;;;13.07;;
10463;SDS011;5279;42.048;24.638;2023-05-14T14:06:16;15.77;;;12.47;;
10463;SDS011;5279;42.048;24.638;2023-05-14T14:08:43;19.73;;;13.50;;
10463;SDS011;5279;42.048;24.638;2023-05-14T14:11:10;16.57;;;12.43;;
10463;SDS011;5279;42.048;24.638;2023-05-14T14:13:37;18.03;;;12.57;;
10463;SDS011;5279;42.048;24.638;2023-05-14T14:16:05;21.00;;;12.97;;
10463;SDS011;5279;42.048;24.638;2023-05-14T14:18:33;20.40;;;13.30;;
10463;SDS011;5279;42.048;24.638;2023-05-14T14:21:00;19.03;;;13.80;;
10463;SDS011;5279;42.048;24.638;2023-05-14T14:23:27;20.63;;;14.40;;
10463;SDS011;5279;42.048;24.638;2023-05-14T14:25:54;23.80;;;14.80;;
10463;SDS011;5279;42.048;24.638;2023-05-14T14:28:21;18.90;;;14.00;;
10463;SDS011;5279;42.048;24.638;2023-05-14T14:30:48;19.77;;;15.20;;
10463;SDS011;5279;42.048;24.638;2023-05-14T14:33:20;18.40;;;12.57;;
10463;SDS011;5279;42.048;24.638;2023-05-14T14:35:49;22.70;;;14.63;;
10463;SDS011;5279;42.048;24.638;2023-05-14T14:38:15;22.07;;;15.23;;
10463;SDS011;5279;42.048;24.638;2023-05-14T14:40:42;21.27;;;14.40;;
10463;SDS011;5279;42.048;24.638;2023-05-14T14:43:10;22.47;;;14.53;;
10463;SDS011;5279;42.048;24.638;2023-05-14T14:45:38;24.17;;;14.87;;
10463;SDS011;5279;42.048;24.638;2023-05-14T14:48:21;23.13;;;15.30;;
10463;SDS011;5279;42.048;24.638;2023-05-14T14:50:50;23.00;;;15.67;;
10463;SDS011;5279;42.048;24.638;2023-05-14T14:53:17;26.83;;;16.97;;
10463;SDS011;5279;42.048;24.638;2023-05-14T14:55:44;22.80;;;15.33;;
10463;SDS011;5279;42.048;24.638;2023-05-14T14:58:11;25.40;;;15.73;;
10463;SDS011;5279;42.048;24.638;2023-05-14T15:00:38;25.00;;;15.67;;
10463;SDS011;5279;42.048;24.638;2023-05-14T15:03:05;30.70;;;17.47;;